sensor_id;sensor_type;location;lat;lon;timestamp;temperature;humidity
38359;DHT22;42072;48.044;14.416;2023-04-03T00:01:05;4.60;99.90
38359;DHT22;42072;48.044;14.416;2023-04-03T00:03:33;4.50;99.90
38359;DHT22;42072;48.044;14.416;2023-04-03T00:06:02;4.50;99.90
38359;DHT22;42072;48.044;14.416;2023-04-03T00:08:29;4.50;99.90
38359;DHT22;42072;48.044;14.416;2023-04-03T00:10:58;4.50;99.90
38359;DHT22;42072;48.044;14.416;2023-04-03T00:13:25;4.40;99.90
38359;DHT22;42072;48.044;14.416;2023-04-03T00:15:53;4.50;99.90
38359;DHT22;42072;48.044;14.416;2023-04-03T00:18:20;4.50;99.90
38359;DHT22;42072;48.044;14.416;2023-04-03T00:20:48;4.50;99.90
38359;DHT22;42072;48.044;14.416;2023-04-03T00:23:16;4.50;99.90
38359;DHT22;42072;48.044;14.416;2023-04-03T00:25:43;4.50;99.90
38359;DHT22;42072;48.044;14.416;2023-04-03T00:28:11;4.50;99.90
38359;DHT22;42072;48.044;14.416;2023-04-03T00:30:38;4.40;99.90
38359;DHT22;42072;48.044;14.416;2023-04-03T00:33:05;4.40;99.90
38359;DHT22;42072;48.044;14.416;2023-04-03T00:35:34;4.40;99.90
38359;DHT22;42072;48.044;14.416;2023-04-03T00:38:02;4.40;99.90
38359;DHT22;42072;48.044;14.416;2023-04-03T00:40:34;4.50;1.00
38359;DHT22;42072;48.044;14.416;2023-04-03T00:43:10;4.50;1.00
38359;DHT22;42072;48.044;14.416;2023-04-03T00:45:45;4.50;99.90
38359;DHT22;42072;48.044;14.416;2023-04-03T00:48:22;4.50;99.90
38359;DHT22;42072;48.044;14.416;2023-04-03T00:50:52;4.50;99.90
38359;DHT22;42072;48.044;14.416;2023-04-03T00:53:24;4.50;99.90
38359;DHT22;42072;48.044;14.416;2023-04-03T00:55:53;4.50;99.90
38359;DHT22;42072;48.044;14.416;2023-04-03T00:58:33;4.50;99.90
38359;DHT22;42072;48.044;14.416;2023-04-03T01:01:05;4.50;99.90
38359;DHT22;42072;48.044;14.416;2023-04-03T01:03:34;4.40;1.00
38359;DHT22;42072;48.044;14.416;2023-04-03T01:06:02;4.40;1.00
38359;DHT22;42072;48.044;14.416;2023-04-03T01:08:30;4.40;1.00
38359;DHT22;42072;48.044;14.416;2023-04-03T01:10:57;4.30;1.00
38359;DHT22;42072;48.044;14.416;2023-04-03T01:13:28;4.30;1.00
38359;DHT22;42072;48.044;14.416;2023-04-03T01:15:55;4.30;1.00
38359;DHT22;42072;48.044;14.416;2023-04-03T01:18:24;4.20;1.00
38359;DHT22;42072;48.044;14.416;2023-04-03T01:26:16;4.20;1.00
38359;DHT22;42072;48.044;14.416;2023-04-03T01:28:44;4.20;1.00
38359;DHT22;42072;48.044;14.416;2023-04-03T01:31:22;4.30;1.00
38359;DHT22;42072;48.044;14.416;2023-04-03T01:33:51;4.30;1.00
38359;DHT22;42072;48.044;14.416;2023-04-03T01:36:25;4.30;1.00
38359;DHT22;42072;48.044;14.416;2023-04-03T01:38:53;4.30;99.90
38359;DHT22;42072;48.044;14.416;2023-04-03T01:41:20;4.30;99.90
38359;DHT22;42072;48.044;14.416;2023-04-03T01:43:49;4.30;99.90
38359;DHT22;42072;48.044;14.416;2023-04-03T01:46:17;4.20;99.90
38359;DHT22;42072;48.044;14.416;2023-04-03T01:48:45;4.20;99.90
38359;DHT22;42072;48.044;14.416;2023-04-03T01:51:12;4.20;99.90
38359;DHT22;42072;48.044;14.416;2023-04-03T01:53:40;4.20;99.90
38359;DHT22;42072;48.044;14.416;2023-04-03T01:56:07;4.20;99.90
38359;DHT22;42072;48.044;14.416;2023-04-03T01:58:34;4.20;99.90
38359;DHT22;42072;48.044;14.416;2023-04-03T02:01:02;4.10;99.90
38359;DHT22;42072;48.044;14.416;2023-04-03T02:03:29;4.20;1.00
38359;DHT22;42072;48.044;14.416;2023-04-03T02:05:58;4.20;1.00
38359;DHT22;42072;48.044;14.416;2023-04-03T02:08:26;4.20;1.00
38359;DHT22;42072;48.044;14.416;2023-04-03T02:10:53;4.10;1.00
38359;DHT22;42072;48.044;14.416;2023-04-03T02:13:20;4.20;1.00
38359;DHT22;42072;48.044;14.416;2023-04-03T02:15:47;4.20;1.00
38359;DHT22;42072;48.044;14.416;2023-04-03T02:18:15;4.20;1.00
38359;DHT22;42072;48.044;14.416;2023-04-03T02:20:42;4.20;1.00
38359;DHT22;42072;48.044;14.416;2023-04-03T02:23:09;4.20;1.00
38359;DHT22;42072;48.044;14.416;2023-04-03T02:25:37;4.10;1.00
38359;DHT22;42072;48.044;14.416;2023-04-03T02:28:05;4.10;1.00
38359;DHT22;42072;48.044;14.416;2023-04-03T02:30:33;4.10;1.00
38359;DHT22;42072;48.044;14.416;2023-04-03T02:33:00;4.10;99.90
38359;DHT22;42072;48.044;14.416;2023-04-03T02:35:27;4.10;99.90
38359;DHT22;42072;48.044;14.416;2023-04-03T02:37:55;4.10;99.90
38359;DHT22;42072;48.044;14.416;2023-04-03T02:40:22;4.10;99.90
38359;DHT22;42072;48.044;14.416;2023-04-03T02:42:49;4.10;99.90
38359;DHT22;42072;48.044;14.416;2023-04-03T02:45:16;4.10;99.90
38359;DHT22;42072;48.044;14.416;2023-04-03T02:47:43;4.10;99.90
38359;DHT22;42072;48.044;14.416;2023-04-03T02:50:11;4.10;99.90
38359;DHT22;42072;48.044;14.416;2023-04-03T02:52:38;4.10;99.90
38359;DHT22;42072;48.044;14.416;2023-04-03T02:55:06;4.10;99.90
38359;DHT22;42072;48.044;14.416;2023-04-03T02:57:33;4.10;99.90
38359;DHT22;42072;48.044;14.416;2023-04-03T03:00:00;4.10;99.90
38359;DHT22;42072;48.044;14.416;2023-04-03T03:02:27;4.10;99.90
38359;DHT22;42072;48.044;14.416;2023-04-03T03:04:54;4.10;99.90
38359;DHT22;42072;48.044;14.416;2023-04-03T03:07:22;4.10;99.90
38359;DHT22;42072;48.044;14.416;2023-04-03T03:09:49;4.00;99.90
38359;DHT22;42072;48.044;14.416;2023-04-03T03:12:16;4.10;99.90
38359;DHT22;42072;48.044;14.416;2023-04-03T03:14:49;4.10;99.90
38359;DHT22;42072;48.044;14.416;2023-04-03T03:17:17;4.00;99.90
38359;DHT22;42072;48.044;14.416;2023-04-03T03:19:44;4.00;99.90
38359;DHT22;42072;48.044;14.416;2023-04-03T03:22:12;4.00;99.90
38359;DHT22;42072;48.044;14.416;2023-04-03T03:24:39;4.00;99.90
38359;DHT22;42072;48.044;14.416;2023-04-03T03:27:06;3.90;99.90
38359;DHT22;42072;48.044;14.416;2023-04-03T03:29:34;3.90;99.90
38359;DHT22;42072;48.044;14.416;2023-04-03T03:32:01;3.90;99.90
38359;DHT22;42072;48.044;14.416;2023-04-03T03:34:28;3.90;99.90
38359;DHT22;42072;48.044;14.416;2023-04-03T03:36:55;3.90;99.90
38359;DHT22;42072;48.044;14.416;2023-04-03T03:39:22;3.90;99.90
38359;DHT22;42072;48.044;14.416;2023-04-03T03:41:50;3.90;99.90
38359;DHT22;42072;48.044;14.416;2023-04-03T03:44:17;3.90;99.90
38359;DHT22;42072;48.044;14.416;2023-04-03T03:46:44;3.90;99.90
38359;DHT22;42072;48.044;14.416;2023-04-03T03:49:11;3.80;99.90
38359;DHT22;42072;48.044;14.416;2023-04-03T03:51:39;3.80;99.90
38359;DHT22;42072;48.044;14.416;2023-04-03T03:54:07;3.80;99.90
38359;DHT22;42072;48.044;14.416;2023-04-03T03:56:34;3.80;99.90
38359;DHT22;42072;48.044;14.416;2023-04-03T03:59:02;3.80;99.90
38359;DHT22;42072;48.044;14.416;2023-04-03T04:01:29;3.80;99.90
38359;DHT22;42072;48.044;14.416;2023-04-03T04:03:57;3.80;99.90
38359;DHT22;42072;48.044;14.416;2023-04-03T04:06:24;3.90;99.90
38359;DHT22;42072;48.044;14.416;2023-04-03T04:08:51;3.90;99.90
38359;DHT22;42072;48.044;14.416;2023-04-03T04:11:19;3.80;99.90
38359;DHT22;42072;48.044;14.416;2023-04-03T04:13:47;3.80;99.90
38359;DHT22;42072;48.044;14.416;2023-04-03T04:16:14;3.80;99.90
38359;DHT22;42072;48.044;14.416;2023-04-03T04:18:41;3.80;99.90
38359;DHT22;42072;48.044;14.416;2023-04-03T04:21:08;3.80;99.90
38359;DHT22;42072;48.044;14.416;2023-04-03T04:23:36;3.80;99.90
38359;DHT22;42072;48.044;14.416;2023-04-03T04:26:03;3.80;99.90
38359;DHT22;42072;48.044;14.416;2023-04-03T04:28:30;3.80;99.90
38359;DHT22;42072;48.044;14.416;2023-04-03T04:30:57;3.80;99.90
38359;DHT22;42072;48.044;14.416;2023-04-03T04:33:24;3.80;99.90
38359;DHT22;42072;48.044;14.416;2023-04-03T04:35:52;3.70;99.90
38359;DHT22;42072;48.044;14.416;2023-04-03T04:38:19;3.70;99.90
38359;DHT22;42072;48.044;14.416;2023-04-03T04:40:48;3.80;99.90
38359;DHT22;42072;48.044;14.416;2023-04-03T04:43:16;3.80;99.90
38359;DHT22;42072;48.044;14.416;2023-04-03T04:45:43;3.80;99.90
38359;DHT22;42072;48.044;14.416;2023-04-03T04:48:10;3.80;99.90
38359;DHT22;42072;48.044;14.416;2023-04-03T04:50:37;3.80;99.90
38359;DHT22;42072;48.044;14.416;2023-04-03T04:53:05;3.80;99.90
38359;DHT22;42072;48.044;14.416;2023-04-03T04:55:32;3.80;99.90
38359;DHT22;42072;48.044;14.416;2023-04-03T04:57:59;3.80;1.00
38359;DHT22;42072;48.044;14.416;2023-04-03T05:00:26;3.80;1.00
38359;DHT22;42072;48.044;14.416;2023-04-03T05:02:53;3.80;1.00
38359;DHT22;42072;48.044;14.416;2023-04-03T05:05:21;3.90;1.00
38359;DHT22;42072;48.044;14.416;2023-04-03T05:07:49;3.80;1.00
38359;DHT22;42072;48.044;14.416;2023-04-03T05:10:16;3.80;1.00
38359;DHT22;42072;48.044;14.416;2023-04-03T05:12:43;3.80;1.00
38359;DHT22;42072;48.044;14.416;2023-04-03T05:15:10;3.80;1.00
38359;DHT22;42072;48.044;14.416;2023-04-03T05:17:39;3.90;1.00
38359;DHT22;42072;48.044;14.416;2023-04-03T05:20:06;3.80;1.00
38359;DHT22;42072;48.044;14.416;2023-04-03T05:22:34;3.90;1.00
38359;DHT22;42072;48.044;14.416;2023-04-03T05:25:01;3.90;1.00
38359;DHT22;42072;48.044;14.416;2023-04-03T05:27:28;3.90;1.00
38359;DHT22;42072;48.044;14.416;2023-04-03T05:29:55;3.90;1.00
38359;DHT22;42072;48.044;14.416;2023-04-03T05:32:23;3.90;1.00
38359;DHT22;42072;48.044;14.416;2023-04-03T05:34:52;4.00;99.90
38359;DHT22;42072;48.044;14.416;2023-04-03T05:37:19;4.00;99.90
38359;DHT22;42072;48.044;14.416;2023-04-03T05:39:47;4.00;99.90
38359;DHT22;42072;48.044;14.416;2023-04-03T05:42:14;4.10;99.90
38359;DHT22;42072;48.044;14.416;2023-04-03T05:44:42;4.10;99.90
38359;DHT22;42072;48.044;14.416;2023-04-03T05:47:10;4.20;99.90
38359;DHT22;42072;48.044;14.416;2023-04-03T05:49:37;4.20;99.90
38359;DHT22;42072;48.044;14.416;2023-04-03T05:52:29;4.20;99.90
38359;DHT22;42072;48.044;14.416;2023-04-03T05:54:57;4.30;99.90
38359;DHT22;42072;48.044;14.416;2023-04-03T05:57:24;4.40;99.90
38359;DHT22;42072;48.044;14.416;2023-04-03T05:59:51;4.40;99.90
38359;DHT22;42072;48.044;14.416;2023-04-03T06:02:23;4.50;99.90
38359;DHT22;42072;48.044;14.416;2023-04-03T06:04:52;4.50;99.90
38359;DHT22;42072;48.044;14.416;2023-04-03T06:07:23;4.70;99.90
38359;DHT22;42072;48.044;14.416;2023-04-03T06:09:55;4.70;99.90
38359;DHT22;42072;48.044;14.416;2023-04-03T06:12:23;4.70;99.90
38359;DHT22;42072;48.044;14.416;2023-04-03T06:14:50;4.70;99.90
38359;DHT22;42072;48.044;14.416;2023-04-03T06:17:18;4.70;99.90
38359;DHT22;42072;48.044;14.416;2023-04-03T06:19:45;4.80;99.90
38359;DHT22;42072;48.044;14.416;2023-04-03T06:22:13;4.80;99.90
38359;DHT22;42072;48.044;14.416;2023-04-03T06:24:41;4.70;99.90
38359;DHT22;42072;48.044;14.416;2023-04-03T06:27:10;4.80;99.90
38359;DHT22;42072;48.044;14.416;2023-04-03T06:29:38;4.90;99.90
38359;DHT22;42072;48.044;14.416;2023-04-03T06:32:05;4.90;99.90
38359;DHT22;42072;48.044;14.416;2023-04-03T06:34:32;4.90;99.90
38359;DHT22;42072;48.044;14.416;2023-04-03T06:37:00;4.90;99.90
38359;DHT22;42072;48.044;14.416;2023-04-03T06:39:27;4.90;99.90
38359;DHT22;42072;48.044;14.416;2023-04-03T06:41:55;4.80;99.90
38359;DHT22;42072;48.044;14.416;2023-04-03T06:44:22;4.80;99.90
38359;DHT22;42072;48.044;14.416;2023-04-03T06:46:49;4.90;99.90
38359;DHT22;42072;48.044;14.416;2023-04-03T06:49:16;5.10;99.90
38359;DHT22;42072;48.044;14.416;2023-04-03T06:51:43;5.10;99.90
38359;DHT22;42072;48.044;14.416;2023-04-03T06:54:11;5.20;99.90
38359;DHT22;42072;48.044;14.416;2023-04-03T06:56:38;5.20;99.90
38359;DHT22;42072;48.044;14.416;2023-04-03T06:59:05;5.30;96.50
38359;DHT22;42072;48.044;14.416;2023-04-03T07:01:32;5.40;90.30
38359;DHT22;42072;48.044;14.416;2023-04-03T07:03:59;5.40;91.20
38359;DHT22;42072;48.044;14.416;2023-04-03T07:06:27;5.60;70.00
38359;DHT22;42072;48.044;14.416;2023-04-03T07:08:54;5.70;83.50
38359;DHT22;42072;48.044;14.416;2023-04-03T07:11:22;6.00;72.90
38359;DHT22;42072;48.044;14.416;2023-04-03T07:13:50;6.10;58.40
38359;DHT22;42072;48.044;14.416;2023-04-03T07:16:18;6.40;49.40
38359;DHT22;42072;48.044;14.416;2023-04-03T07:18:45;6.50;30.90
38359;DHT22;42072;48.044;14.416;2023-04-03T07:21:13;6.60;22.30
38359;DHT22;42072;48.044;14.416;2023-04-03T07:23:40;6.80;6.60
38359;DHT22;42072;48.044;14.416;2023-04-03T07:26:07;7.00;1.00
38359;DHT22;42072;48.044;14.416;2023-04-03T07:28:35;6.80;1.00
38359;DHT22;42072;48.044;14.416;2023-04-03T07:31:06;6.70;1.00
38359;DHT22;42072;48.044;14.416;2023-04-03T07:33:36;6.60;1.00
38359;DHT22;42072;48.044;14.416;2023-04-03T07:36:04;6.70;3.20
38359;DHT22;42072;48.044;14.416;2023-04-03T07:38:34;6.70;6.50
38359;DHT22;42072;48.044;14.416;2023-04-03T07:41:03;6.90;2.90
38359;DHT22;42072;48.044;14.416;2023-04-03T07:43:30;7.00;4.20
38359;DHT22;42072;48.044;14.416;2023-04-03T07:45:57;7.30;7.70
38359;DHT22;42072;48.044;14.416;2023-04-03T07:48:25;7.40;1.00
38359;DHT22;42072;48.044;14.416;2023-04-03T07:50:53;7.10;1.00
38359;DHT22;42072;48.044;14.416;2023-04-03T07:53:20;7.20;1.00
38359;DHT22;42072;48.044;14.416;2023-04-03T07:55:48;7.10;1.00
38359;DHT22;42072;48.044;14.416;2023-04-03T07:58:18;7.00;1.00
38359;DHT22;42072;48.044;14.416;2023-04-03T08:00:46;7.20;1.00
38359;DHT22;42072;48.044;14.416;2023-04-03T08:03:14;7.20;1.00
38359;DHT22;42072;48.044;14.416;2023-04-03T08:05:46;7.00;1.00
38359;DHT22;42072;48.044;14.416;2023-04-03T08:08:17;6.80;1.00
38359;DHT22;42072;48.044;14.416;2023-04-03T08:10:51;6.50;1.00
38359;DHT22;42072;48.044;14.416;2023-04-03T08:13:20;6.50;1.40
38359;DHT22;42072;48.044;14.416;2023-04-03T08:15:47;6.70;1.00
38359;DHT22;42072;48.044;14.416;2023-04-03T08:18:15;6.80;1.00
38359;DHT22;42072;48.044;14.416;2023-04-03T08:20:43;6.80;1.00
38359;DHT22;42072;48.044;14.416;2023-04-03T08:23:11;6.70;1.00
38359;DHT22;42072;48.044;14.416;2023-04-03T08:25:42;6.30;1.00
38359;DHT22;42072;48.044;14.416;2023-04-03T08:28:10;6.30;17.10
38359;DHT22;42072;48.044;14.416;2023-04-03T08:30:41;6.60;27.90
38359;DHT22;42072;48.044;14.416;2023-04-03T08:33:10;6.70;26.40
38359;DHT22;42072;48.044;14.416;2023-04-03T08:35:41;6.40;40.90
38359;DHT22;42072;48.044;14.416;2023-04-03T08:38:09;6.30;64.40
38359;DHT22;42072;48.044;14.416;2023-04-03T08:40:38;5.90;73.30
38359;DHT22;42072;48.044;14.416;2023-04-03T08:46:05;5.40;99.30
38359;DHT22;42072;48.044;14.416;2023-04-03T08:48:42;5.10;99.90
38359;DHT22;42072;48.044;14.416;2023-04-03T08:51:19;5.10;99.90
38359;DHT22;42072;48.044;14.416;2023-04-03T08:54:14;5.20;99.90
38359;DHT22;42072;48.044;14.416;2023-04-03T08:56:44;5.20;99.90
38359;DHT22;42072;48.044;14.416;2023-04-03T08:59:14;5.20;99.90
38359;DHT22;42072;48.044;14.416;2023-04-03T09:01:45;5.30;99.90
38359;DHT22;42072;48.044;14.416;2023-04-03T09:04:15;5.50;99.90
38359;DHT22;42072;48.044;14.416;2023-04-03T09:06:48;5.50;99.90
38359;DHT22;42072;48.044;14.416;2023-04-03T09:09:36;5.60;96.70
38359;DHT22;42072;48.044;14.416;2023-04-03T09:12:24;5.90;99.60
38359;DHT22;42072;48.044;14.416;2023-04-03T09:15:20;5.80;95.10
38359;DHT22;42072;48.044;14.416;2023-04-03T09:18:28;5.70;98.10
38359;DHT22;42072;48.044;14.416;2023-04-03T09:23:59;6.00;95.70
38359;DHT22;42072;48.044;14.416;2023-04-03T09:29:22;6.10;72.60
38359;DHT22;42072;48.044;14.416;2023-04-03T09:31:56;6.00;70.60
38359;DHT22;42072;48.044;14.416;2023-04-03T09:34:32;5.70;67.00
38359;DHT22;42072;48.044;14.416;2023-04-03T09:37:04;5.50;82.90
38359;DHT22;42072;48.044;14.416;2023-04-03T09:39:52;5.90;77.30
38359;DHT22;42072;48.044;14.416;2023-04-03T09:42:22;5.70;62.00
38359;DHT22;42072;48.044;14.416;2023-04-03T09:44:59;5.60;54.20
38359;DHT22;42072;48.044;14.416;2023-04-03T09:47:36;6.00;42.30
38359;DHT22;42072;48.044;14.416;2023-04-03T09:52:43;6.90;23.00
38359;DHT22;42072;48.044;14.416;2023-04-03T09:55:15;7.10;22.70
38359;DHT22;42072;48.044;14.416;2023-04-03T09:57:47;7.40;14.60
38359;DHT22;42072;48.044;14.416;2023-04-03T10:00:26;7.70;1.80
38359;DHT22;42072;48.044;14.416;2023-04-03T10:02:56;7.90;1.00
38359;DHT22;42072;48.044;14.416;2023-04-03T10:05:33;8.10;1.00
38359;DHT22;42072;48.044;14.416;2023-04-03T10:10:41;7.30;1.00
38359;DHT22;42072;48.044;14.416;2023-04-03T10:13:13;7.30;1.00
38359;DHT22;42072;48.044;14.416;2023-04-03T10:16:09;7.40;1.00
38359;DHT22;42072;48.044;14.416;2023-04-03T10:21:38;7.50;1.00
38359;DHT22;42072;48.044;14.416;2023-04-03T10:24:23;7.90;1.00
38359;DHT22;42072;48.044;14.416;2023-04-03T10:27:03;8.00;1.00
38359;DHT22;42072;48.044;14.416;2023-04-03T10:35:46;8.30;1.00
38359;DHT22;42072;48.044;14.416;2023-04-03T10:38:20;8.60;1.00
38359;DHT22;42072;48.044;14.416;2023-04-03T10:41:12;8.20;1.00
38359;DHT22;42072;48.044;14.416;2023-04-03T10:43:51;8.40;1.00
38359;DHT22;42072;48.044;14.416;2023-04-03T10:46:23;8.10;1.00
38359;DHT22;42072;48.044;14.416;2023-04-03T10:52:00;8.00;1.00
38359;DHT22;42072;48.044;14.416;2023-04-03T10:54:57;8.10;1.00
38359;DHT22;42072;48.044;14.416;2023-04-03T10:57:29;8.20;1.00
38359;DHT22;42072;48.044;14.416;2023-04-03T11:00:04;8.20;1.00
38359;DHT22;42072;48.044;14.416;2023-04-03T11:02:57;8.30;1.00
38359;DHT22;42072;48.044;14.416;2023-04-03T11:05:37;8.30;1.00
38359;DHT22;42072;48.044;14.416;2023-04-03T11:11:00;8.60;1.00
38359;DHT22;42072;48.044;14.416;2023-04-03T11:16:33;9.10;1.00
38359;DHT22;42072;48.044;14.416;2023-04-03T11:21:57;8.70;1.00
38359;DHT22;42072;48.044;14.416;2023-04-03T11:24:29;8.60;1.00
38359;DHT22;42072;48.044;14.416;2023-04-03T11:27:00;8.20;1.00
38359;DHT22;42072;48.044;14.416;2023-04-03T11:29:38;8.10;1.00
38359;DHT22;42072;48.044;14.416;2023-04-03T11:34:57;8.10;1.00
38359;DHT22;42072;48.044;14.416;2023-04-03T11:37:47;8.00;1.00
38359;DHT22;42072;48.044;14.416;2023-04-03T11:42:46;7.90;1.00
38359;DHT22;42072;48.044;14.416;2023-04-03T11:45:25;8.10;1.00
38359;DHT22;42072;48.044;14.416;2023-04-03T11:47:56;8.20;1.00
38359;DHT22;42072;48.044;14.416;2023-04-03T11:50:45;8.30;1.00
38359;DHT22;42072;48.044;14.416;2023-04-03T11:58:22;8.20;1.00
38359;DHT22;42072;48.044;14.416;2023-04-03T12:01:02;8.10;1.00
38359;DHT22;42072;48.044;14.416;2023-04-03T12:03:32;8.20;1.00
38359;DHT22;42072;48.044;14.416;2023-04-03T12:16:32;8.30;1.00
38359;DHT22;42072;48.044;14.416;2023-04-03T12:27:25;8.60;1.00
38359;DHT22;42072;48.044;14.416;2023-04-03T12:30:06;8.40;1.00
38359;DHT22;42072;48.044;14.416;2023-04-03T12:33:02;8.10;1.00
38359;DHT22;42072;48.044;14.416;2023-04-03T12:38:58;7.90;1.00
38359;DHT22;42072;48.044;14.416;2023-04-03T12:41:53;8.00;1.00
38359;DHT22;42072;48.044;14.416;2023-04-03T12:47:00;8.00;1.00
38359;DHT22;42072;48.044;14.416;2023-04-03T12:51:56;7.70;1.00
38359;DHT22;42072;48.044;14.416;2023-04-03T12:54:29;7.60;1.00
38359;DHT22;42072;48.044;14.416;2023-04-03T12:57:11;7.60;1.00
38359;DHT22;42072;48.044;14.416;2023-04-03T12:59:38;7.40;1.00
38359;DHT22;42072;48.044;14.416;2023-04-03T13:04:55;7.80;1.00
38359;DHT22;42072;48.044;14.416;2023-04-03T13:07:30;8.00;1.00
38359;DHT22;42072;48.044;14.416;2023-04-03T13:12:52;8.40;1.00
38359;DHT22;42072;48.044;14.416;2023-04-03T13:15:21;8.30;1.00
38359;DHT22;42072;48.044;14.416;2023-04-03T13:17:50;8.40;1.00
38359;DHT22;42072;48.044;14.416;2023-04-03T13:20:27;8.00;1.00
38359;DHT22;42072;48.044;14.416;2023-04-03T13:23:07;7.90;1.00
38359;DHT22;42072;48.044;14.416;2023-04-03T13:25:41;8.00;1.00
38359;DHT22;42072;48.044;14.416;2023-04-03T13:28:13;8.20;1.00
38359;DHT22;42072;48.044;14.416;2023-04-03T13:30:56;8.00;1.00
38359;DHT22;42072;48.044;14.416;2023-04-03T13:33:26;8.00;1.00
38359;DHT22;42072;48.044;14.416;2023-04-03T13:36:17;7.90;1.00
38359;DHT22;42072;48.044;14.416;2023-04-03T13:38:45;7.50;1.00
38359;DHT22;42072;48.044;14.416;2023-04-03T13:41:26;7.10;1.00
38359;DHT22;42072;48.044;14.416;2023-04-03T13:43:55;7.30;1.00
38359;DHT22;42072;48.044;14.416;2023-04-03T13:46:32;7.50;1.00
38359;DHT22;42072;48.044;14.416;2023-04-03T13:49:20;7.70;1.00
38359;DHT22;42072;48.044;14.416;2023-04-03T13:51:49;7.50;1.00
38359;DHT22;42072;48.044;14.416;2023-04-03T13:54:37;7.60;1.00
38359;DHT22;42072;48.044;14.416;2023-04-03T13:57:14;7.90;1.00
38359;DHT22;42072;48.044;14.416;2023-04-03T13:59:45;7.70;1.00
38359;DHT22;42072;48.044;14.416;2023-04-03T14:02:23;7.70;1.00
38359;DHT22;42072;48.044;14.416;2023-04-03T14:04:58;7.90;1.00
38359;DHT22;42072;48.044;14.416;2023-04-03T14:07:29;7.60;1.00
38359;DHT22;42072;48.044;14.416;2023-04-03T14:09:58;7.70;1.00
38359;DHT22;42072;48.044;14.416;2023-04-03T14:12:35;8.00;1.00
38359;DHT22;42072;48.044;14.416;2023-04-03T14:15:16;8.10;1.00
38359;DHT22;42072;48.044;14.416;2023-04-03T14:17:43;8.00;1.00
38359;DHT22;42072;48.044;14.416;2023-04-03T14:20:24;8.10;1.00
38359;DHT22;42072;48.044;14.416;2023-04-03T14:22:52;8.60;1.00
38359;DHT22;42072;48.044;14.416;2023-04-03T14:25:21;8.40;1.00
38359;DHT22;42072;48.044;14.416;2023-04-03T14:27:52;8.30;1.00
38359;DHT22;42072;48.044;14.416;2023-04-03T14:30:27;8.20;1.00
38359;DHT22;42072;48.044;14.416;2023-04-03T14:32:54;8.30;1.00
38359;DHT22;42072;48.044;14.416;2023-04-03T14:35:24;8.30;1.00
38359;DHT22;42072;48.044;14.416;2023-04-03T14:37:52;7.80;1.00
38359;DHT22;42072;48.044;14.416;2023-04-03T14:40:24;7.90;1.00
38359;DHT22;42072;48.044;14.416;2023-04-03T14:42:52;7.50;1.00
38359;DHT22;42072;48.044;14.416;2023-04-03T14:45:22;7.40;1.00
38359;DHT22;42072;48.044;14.416;2023-04-03T14:47:52;7.40;1.00
38359;DHT22;42072;48.044;14.416;2023-04-03T14:50:23;7.30;1.00
38359;DHT22;42072;48.044;14.416;2023-04-03T14:52:53;7.20;1.00
38359;DHT22;42072;48.044;14.416;2023-04-03T14:55:24;7.20;1.00
38359;DHT22;42072;48.044;14.416;2023-04-03T14:57:53;7.20;1.00
38359;DHT22;42072;48.044;14.416;2023-04-03T15:00:21;7.20;1.00
38359;DHT22;42072;48.044;14.416;2023-04-03T15:02:49;7.40;1.00
38359;DHT22;42072;48.044;14.416;2023-04-03T15:05:16;7.30;1.00
38359;DHT22;42072;48.044;14.416;2023-04-03T15:07:53;7.20;1.00
38359;DHT22;42072;48.044;14.416;2023-04-03T15:10:27;7.30;1.00
38359;DHT22;42072;48.044;14.416;2023-04-03T15:12:56;7.40;1.00
38359;DHT22;42072;48.044;14.416;2023-04-03T15:15:24;7.30;1.00
38359;DHT22;42072;48.044;14.416;2023-04-03T15:17:54;7.00;1.00
38359;DHT22;42072;48.044;14.416;2023-04-03T15:20:25;6.80;1.00
38359;DHT22;42072;48.044;14.416;2023-04-03T15:22:53;6.70;1.00
38359;DHT22;42072;48.044;14.416;2023-04-03T15:25:23;6.70;1.00
38359;DHT22;42072;48.044;14.416;2023-04-03T15:27:56;6.80;1.00
38359;DHT22;42072;48.044;14.416;2023-04-03T15:30:23;6.80;1.00
38359;DHT22;42072;48.044;14.416;2023-04-03T15:32:50;6.90;1.00
38359;DHT22;42072;48.044;14.416;2023-04-03T15:35:18;6.90;1.00
38359;DHT22;42072;48.044;14.416;2023-04-03T15:37:45;6.80;1.00
38359;DHT22;42072;48.044;14.416;2023-04-03T15:40:13;6.80;1.00
38359;DHT22;42072;48.044;14.416;2023-04-03T15:42:40;6.70;1.00
38359;DHT22;42072;48.044;14.416;2023-04-03T15:45:08;6.60;1.00
38359;DHT22;42072;48.044;14.416;2023-04-03T15:47:35;6.40;1.00
38359;DHT22;42072;48.044;14.416;2023-04-03T15:50:03;6.40;1.00
38359;DHT22;42072;48.044;14.416;2023-04-03T15:52:34;6.20;1.00
38359;DHT22;42072;48.044;14.416;2023-04-03T15:55:01;6.30;1.00
38359;DHT22;42072;48.044;14.416;2023-04-03T15:57:28;6.20;1.00
38359;DHT22;42072;48.044;14.416;2023-04-03T16:00:00;6.20;1.00
38359;DHT22;42072;48.044;14.416;2023-04-03T16:02:28;6.10;1.00
38359;DHT22;42072;48.044;14.416;2023-04-03T16:04:55;6.10;1.00
38359;DHT22;42072;48.044;14.416;2023-04-03T16:07:22;6.20;1.00
38359;DHT22;42072;48.044;14.416;2023-04-03T16:09:50;6.30;1.00
38359;DHT22;42072;48.044;14.416;2023-04-03T16:12:17;6.30;1.00
38359;DHT22;42072;48.044;14.416;2023-04-03T16:14:44;6.20;1.00
38359;DHT22;42072;48.044;14.416;2023-04-03T16:17:11;6.20;1.00
38359;DHT22;42072;48.044;14.416;2023-04-03T16:19:38;6.20;1.00
38359;DHT22;42072;48.044;14.416;2023-04-03T16:22:05;6.00;1.00
38359;DHT22;42072;48.044;14.416;2023-04-03T16:24:33;6.00;1.00
38359;DHT22;42072;48.044;14.416;2023-04-03T16:27:00;5.90;1.00
38359;DHT22;42072;48.044;14.416;2023-04-03T16:29:27;5.90;1.00
38359;DHT22;42072;48.044;14.416;2023-04-03T16:31:56;5.80;1.00
38359;DHT22;42072;48.044;14.416;2023-04-03T16:34:25;5.70;1.00
38359;DHT22;42072;48.044;14.416;2023-04-03T16:36:52;5.70;1.00
38359;DHT22;42072;48.044;14.416;2023-04-03T16:39:20;5.60;1.00
38359;DHT22;42072;48.044;14.416;2023-04-03T16:41:47;5.60;1.00
38359;DHT22;42072;48.044;14.416;2023-04-03T16:44:14;5.50;1.00
38359;DHT22;42072;48.044;14.416;2023-04-03T16:46:42;5.40;1.00
38359;DHT22;42072;48.044;14.416;2023-04-03T16:49:11;5.10;1.00
38359;DHT22;42072;48.044;14.416;2023-04-03T16:51:39;4.90;1.00
38359;DHT22;42072;48.044;14.416;2023-04-03T16:54:06;4.70;1.00
38359;DHT22;42072;48.044;14.416;2023-04-03T16:56:34;4.60;1.00
38359;DHT22;42072;48.044;14.416;2023-04-03T16:59:01;4.60;1.00
38359;DHT22;42072;48.044;14.416;2023-04-03T17:01:28;4.50;1.00
38359;DHT22;42072;48.044;14.416;2023-04-03T17:03:56;4.50;1.00
38359;DHT22;42072;48.044;14.416;2023-04-03T17:06:24;4.40;1.00
38359;DHT22;42072;48.044;14.416;2023-04-03T17:08:51;4.50;1.00
38359;DHT22;42072;48.044;14.416;2023-04-03T17:11:19;4.40;1.00
38359;DHT22;42072;48.044;14.416;2023-04-03T17:13:47;4.30;1.00
38359;DHT22;42072;48.044;14.416;2023-04-03T17:16:15;4.20;1.00
38359;DHT22;42072;48.044;14.416;2023-04-03T17:18:43;4.20;1.00
38359;DHT22;42072;48.044;14.416;2023-04-03T17:21:12;4.10;1.00
38359;DHT22;42072;48.044;14.416;2023-04-03T17:23:43;4.10;1.00